Star Princess — ZCDD6 — position and weather

sailwx.info

Track history (hours):
 
Tides and Currents Weather Stations Pressure Air Temp Water Temp Dewpoint Dewpoint Depression Visibility Wind Speed Wind Dir Waves Ship Positions

Star Princess

Operator: Princess Cruises

Last reported at 2016-May-27 16:00 UTC. Time now 2016-May-29 09:30 UTC.
Position N 59°42' W 145°12'.

Length 289.6 m; beam 36 m; draft 8.4 m.

Type: Ship. MMSI: 310361000.

Wind from 100 at 13 knots

Waves 1.0 meters (3 feet), 3 second period

Barometer 1017.6 mb
Air temperature 14.5 ° C
Visibility: greater than 10.8 NM
Dewpoint 11.7 ° C
Water temperature 12.0 ° C

Date/timePositionNaut miles runAvg speedWind from/ knotsBaromVisibWave heightAir tempDewpointWater temp
2016-May-27 16:00N 59°42' W 145°12'21319.3 100 / 131017.610.8 1.014.511.712.0
2016-May-27 05:00N 58°30' W 138°42'7816.1 270 / 131018.810.8 0.510.5 8.511.0
2016-May-27 00:11N 58°19' W 136°16'914.9
2016-May-26 23:33N 58°23' W 135°60'1111.3
2016-May-26 22:33N 58°34' W 136°04'1616.2
2016-May-26 21:33N 58°47' W 136°23'18 5.0
2016-May-26 18:00N 58°54' W 136°54'8 5.2 230 / 31021.810.8 9.0 8.0 9.0
2016-May-26 16:29N 58°52' W 136°39'1616.8
2016-May-26 15:33N 58°43' W 136°15'1616.0
2016-May-26 14:33N 58°28' W 136°03'1110.7
2016-May-26 13:33N 58°19' W 135°52'1312.6
2016-May-26 12:33N 58°15' W 135°29'30 8.4
2016-May-26 09:00N 58°42' W 135°06'116 2.4 130 / 81023.710.8 0.511.011.011.0
2016-May-24 09:00N 56°48' W 134°24'5012.5 300 / 71015.110.8 0.511.0 4.310.0
2016-May-24 05:00N 56°00' W 134°00'347 9.7 200 / 61014.610.8 0.512.5 7.4 9.0
2016-May-22 17:04N 51°15' W 128°24'713.8
2016-May-22 16:33N 51°11' W 128°16'5 9.4
2016-May-22 16:00N 51°06' W 128°12'1022.8 280 / 71011.710.8 0.512.511.611.0
2016-May-22 15:33N 51°03' W 127°57'1614.4
2016-May-22 14:25N 50°53' W 127°36'1517.4
2016-May-22 13:34N 50°47' W 127°15'1716.8
2016-May-22 12:33N 50°40' W 126°51'1514.3
2016-May-22 11:30N 50°30' W 126°32'1414.4
2016-May-22 10:31N 50°29' W 126°10'1713.6
2016-May-22 09:18N 50°22' W 125°46'1214.2
2016-May-22 08:26N 50°20' W 125°27'1213.3
2016-May-22 07:33N 50°09' W 125°21'1413.8
2016-May-22 06:33N 49°58' W 125°09'1515.5
2016-May-22 05:33N 49°48' W 124°51'1515.2
2016-May-22 04:33N 49°39' W 124°32'2115.8
2016-May-22 03:14N 49°28' W 124°05'416.1
2016-May-22 03:00N 49°24' W 124°06'1125.4 120 / 271007.610.8 0.517.516.715.0
2016-May-22 02:33N 49°25' W 123°49'1615.9
2016-May-22 01:33N 49°19' W 123°26'1313.0
2016-May-22 00:33N 49°17' W 123°06'0 0.1
2016-May-21 23:31N 49°17' W 123°06'0 0.0
2016-May-21 22:31N 49°17' W 123°06'0 0.0
2016-May-21 21:33N 49°17' W 123°06'0 0.0
2016-May-21 20:33N 49°17' W 123°06'0 0.0
2016-May-21 19:33N 49°17' W 123°06'0 0.0
2016-May-21 18:32N 49°17' W 123°06'0 0.0
2016-May-21 17:32N 49°17' W 123°06'0 0.0
2016-May-21 16:31N 49°17' W 123°06'0 0.0
2016-May-21 15:31N 49°17' W 123°06'0 0.0
2016-May-21 14:33N 49°17' W 123°06'0 0.2
2016-May-21 13:33N 49°17' W 123°06'1010.1
2016-May-21 12:33N 49°18' W 123°22'1717.3
2016-May-21 11:33N 49°23' W 123°47'1917.4
2016-May-21 10:28N 49°31' W 124°14'1617.5
2016-May-21 09:33N 49°40' W 124°35'1526.7
2016-May-21 09:00N 49°48' W 124°54'3 7.7 280 / 151009.310.8 0.515.514.611.0
2016-May-21 08:33N 49°51' W 124°57'1616.1
2016-May-21 07:33N 50°03' W 125°14'1312.6
2016-May-21 06:33N 50°14' W 125°23'4713.7
2016-May-21 03:08N 50°30' W 126°32'914.8
2016-May-21 02:30N 50°33' W 126°46'1414.5
2016-May-21 01:32N 50°37' W 127°06'1414.6
2016-May-21 00:33N 50°47' W 127°23'1515.0
2016-May-20 23:33N 50°56' W 127°42'1312.5
2016-May-20 22:33N 51°04' W 127°58'1313.1
2016-May-20 21:33N 51°11' W 128°15'23114.0
2016-May-20 05:00N 54°36' W 131°12'252 5.0 310 / 201017.410.8 0.516.011.413.0
2016-May-18 02:25N 58°09' W 135°14'3 8.1
2016-May-18 02:00N 58°06' W 135°18'817.6 130 / 251008.310.8 0.5 9.0 8.0 8.0
2016-May-18 01:32N 58°12' W 135°28'9 9.3
2016-May-18 00:33N 58°17' W 135°43'8 8.3
2016-May-17 23:34N 58°20' W 135°57'1010.5
2016-May-17 22:34N 58°30' W 136°03'1413.7
2016-May-17 21:33N 58°42' W 136°13'  
Track history (hours):
 
Tides and Currents Weather Stations Pressure Air Temp Water Temp Dewpoint Dewpoint Depression Visibility Wind Speed Wind Dir Waves Ship Positions

Star Princess

Operator: Princess Cruises

Last reported at 2016-May-27 16:00 UTC. Time now 2016-May-29 09:30 UTC.
Position N 59°42' W 145°12'.

Length 289.6 m; beam 36 m; draft 8.4 m.

Type: Ship. MMSI: 310361000.

Wind from 100 at 13 knots

Waves 1.0 meters (3 feet), 3 second period

Barometer 1017.6 mb
Air temperature 14.5 ° C
Visibility: greater than 10.8 NM
Dewpoint 11.7 ° C
Water temperature 12.0 ° C

Date/timePositionNaut miles runAvg speedWind from/ knotsBaromVisibWave heightAir tempDewpointWater temp
2016-May-27 16:00N 59°42' W 145°12'21319.3 100 / 131017.610.8 1.014.511.712.0
2016-May-27 05:00N 58°30' W 138°42'7816.1 270 / 131018.810.8 0.510.5 8.511.0
2016-May-27 00:11N 58°19' W 136°16'914.9
2016-May-26 23:33N 58°23' W 135°60'1111.3
2016-May-26 22:33N 58°34' W 136°04'1616.2
2016-May-26 21:33N 58°47' W 136°23'18 5.0
2016-May-26 18:00N 58°54' W 136°54'8 5.2 230 / 31021.810.8 9.0 8.0 9.0
2016-May-26 16:29N 58°52' W 136°39'1616.8
2016-May-26 15:33N 58°43' W 136°15'1616.0
2016-May-26 14:33N 58°28' W 136°03'1110.7
2016-May-26 13:33N 58°19' W 135°52'1312.6
2016-May-26 12:33N 58°15' W 135°29'30 8.4
2016-May-26 09:00N 58°42' W 135°06'116 2.4 130 / 81023.710.8 0.511.011.011.0
2016-May-24 09:00N 56°48' W 134°24'5012.5 300 / 71015.110.8 0.511.0 4.310.0
2016-May-24 05:00N 56°00' W 134°00'347 9.7 200 / 61014.610.8 0.512.5 7.4 9.0
2016-May-22 17:04N 51°15' W 128°24'713.8
2016-May-22 16:33N 51°11' W 128°16'5 9.4
2016-May-22 16:00N 51°06' W 128°12'1022.8 280 / 71011.710.8 0.512.511.611.0
2016-May-22 15:33N 51°03' W 127°57'1614.4
2016-May-22 14:25N 50°53' W 127°36'1517.4
2016-May-22 13:34N 50°47' W 127°15'1716.8
2016-May-22 12:33N 50°40' W 126°51'1514.3
2016-May-22 11:30N 50°30' W 126°32'1414.4
2016-May-22 10:31N 50°29' W 126°10'1713.6
2016-May-22 09:18N 50°22' W 125°46'1214.2
2016-May-22 08:26N 50°20' W 125°27'1213.3
2016-May-22 07:33N 50°09' W 125°21'1413.8
2016-May-22 06:33N 49°58' W 125°09'1515.5
2016-May-22 05:33N 49°48' W 124°51'1515.2
2016-May-22 04:33N 49°39' W 124°32'2115.8
2016-May-22 03:14N 49°28' W 124°05'416.1
2016-May-22 03:00N 49°24' W 124°06'1125.4 120 / 271007.610.8 0.517.516.715.0
2016-May-22 02:33N 49°25' W 123°49'1615.9
2016-May-22 01:33N 49°19' W 123°26'1313.0
2016-May-22 00:33N 49°17' W 123°06'0 0.1
2016-May-21 23:31N 49°17' W 123°06'0 0.0
2016-May-21 22:31N 49°17' W 123°06'0 0.0
2016-May-21 21:33N 49°17' W 123°06'0 0.0
2016-May-21 20:33N 49°17' W 123°06'0 0.0
2016-May-21 19:33N 49°17' W 123°06'0 0.0
2016-May-21 18:32N 49°17' W 123°06'0 0.0
2016-May-21 17:32N 49°17' W 123°06'0 0.0
2016-May-21 16:31N 49°17' W 123°06'0 0.0
2016-May-21 15:31N 49°17' W 123°06'0 0.0
2016-May-21 14:33N 49°17' W 123°06'0 0.2
2016-May-21 13:33N 49°17' W 123°06'1010.1
2016-May-21 12:33N 49°18' W 123°22'1717.3
2016-May-21 11:33N 49°23' W 123°47'1917.4
2016-May-21 10:28N 49°31' W 124°14'1617.5
2016-May-21 09:33N 49°40' W 124°35'1526.7
2016-May-21 09:00N 49°48' W 124°54'3 7.7 280 / 151009.310.8 0.515.514.611.0
2016-May-21 08:33N 49°51' W 124°57'1616.1
2016-May-21 07:33N 50°03' W 125°14'1312.6
2016-May-21 06:33N 50°14' W 125°23'4713.7
2016-May-21 03:08N 50°30' W 126°32'914.8
2016-May-21 02:30N 50°33' W 126°46'1414.5
2016-May-21 01:32N 50°37' W 127°06'1414.6
2016-May-21 00:33N 50°47' W 127°23'1515.0
2016-May-20 23:33N 50°56' W 127°42'1312.5
2016-May-20 22:33N 51°04' W 127°58'1313.1
2016-May-20 21:33N 51°11' W 128°15'23114.0
2016-May-20 05:00N 54°36' W 131°12'252 5.0 310 / 201017.410.8 0.516.011.413.0
2016-May-18 02:25N 58°09' W 135°14'3 8.1
2016-May-18 02:00N 58°06' W 135°18'817.6 130 / 251008.310.8 0.5 9.0 8.0 8.0
2016-May-18 01:32N 58°12' W 135°28'9 9.3
2016-May-18 00:33N 58°17' W 135°43'8 8.3
2016-May-17 23:34N 58°20' W 135°57'1010.5
2016-May-17 22:34N 58°30' W 136°03'1413.7
2016-May-17 21:33N 58°42' W 136°13'  

Dump ship's entire track history